createdAt,value
2022-12-08T00:01:16.608Z,99975.06
2022-12-08T00:04:18.313Z,99964.47
2022-12-08T00:07:38.495Z,99966.19
2022-12-08T00:10:49.626Z,99963.78
2022-12-08T00:14:30.379Z,99965.25
2022-12-08T00:17:32.163Z,99966.38
2022-12-08T00:20:33.888Z,99955.44
2022-12-08T00:23:35.599Z,99958.78
2022-12-08T00:26:38.703Z,99951.91
2022-12-08T00:29:42.609Z,99956.00
2022-12-08T00:32:44.251Z,99954.16
2022-12-08T00:35:45.868Z,99956.94
2022-12-08T00:38:48.555Z,99948.75
2022-12-08T00:42:10.355Z,99945.03
2022-12-08T00:45:12.269Z,99947.50
2022-12-08T00:48:13.986Z,99951.00
2022-12-08T00:51:15.569Z,99945.25
2022-12-08T00:54:18.127Z,99938.97
2022-12-08T00:57:21.146Z,99939.75
2022-12-08T01:00:22.850Z,99939.94
2022-12-08T01:03:25.497Z,99928.81
2022-12-08T01:06:27.308Z,99924.19
2022-12-08T01:09:28.908Z,99920.69
2022-12-08T01:12:31.831Z,99909.97
2022-12-08T01:15:33.472Z,99912.72
2022-12-08T01:18:36.088Z,99916.22
2022-12-08T01:21:37.886Z,99914.59
2022-12-08T01:24:39.643Z,99920.50
2022-12-08T01:27:42.630Z,99915.31
2022-12-08T01:30:44.254Z,99912.72
2022-12-08T01:33:46.231Z,99910.53
2022-12-08T01:36:47.976Z,99907.00
2022-12-08T01:39:49.623Z,99917.03
2022-12-08T01:42:52.664Z,99907.41
2022-12-08T01:45:54.360Z,99913.13
2022-12-08T01:49:03.203Z,99911.69
2022-12-08T01:52:11.443Z,99903.91
2022-12-08T01:55:18.380Z,99907.03
2022-12-08T01:58:27.151Z,99904.81
2022-12-08T02:01:29.635Z,99890.16
2022-12-08T02:04:31.284Z,99895.72
2022-12-08T02:07:33.432Z,99893.91
2022-12-08T02:10:37.902Z,99896.28
2022-12-08T02:13:43.108Z,99894.25
2022-12-08T02:16:56.048Z,99886.47
2022-12-08T02:20:36.209Z,99885.00
2022-12-08T02:23:51.570Z,99885.00
2022-12-08T02:27:12.385Z,99878.00
2022-12-08T02:30:21.059Z,99876.88
2022-12-08T02:33:48.938Z,99876.47
2022-12-08T02:37:01.621Z,99872.81
2022-12-08T02:40:11.540Z,99876.13
2022-12-08T02:43:17.946Z,99866.13
2022-12-08T02:46:27.132Z,99866.50
2022-12-08T02:49:29.876Z,99861.13
2022-12-08T02:52:44.041Z,99855.38
2022-12-08T02:55:56.551Z,99859.28
2022-12-08T02:59:13.844Z,99851.69
2022-12-08T03:02:33.838Z,99859.47
2022-12-08T03:05:49.271Z,99863.94
2022-12-08T03:08:57.788Z,99860.25
2022-12-08T03:12:09.789Z,99845.06
2022-12-08T03:15:15.834Z,99856.56
2022-12-08T03:18:21.945Z,99846.72
2022-12-08T03:21:23.609Z,99847.09
2022-12-08T03:24:26.931Z,99842.66
2022-12-08T03:27:31.343Z,99836.94
2022-12-08T03:30:38.697Z,99837.31
2022-12-08T03:33:43.267Z,99834.31
2022-12-08T03:36:45.758Z,99835.44
2022-12-08T03:39:48.774Z,99833.00
2022-12-08T03:42:50.340Z,99815.25
2022-12-08T03:45:51.953Z,99822.50
2022-12-08T03:48:53.719Z,99815.47
2022-12-08T03:51:55.361Z,99815.13
2022-12-08T03:54:58.331Z,99811.38
2022-12-08T03:57:59.923Z,99811.75
2022-12-08T04:01:01.672Z,99805.44
2022-12-08T04:04:03.431Z,99807.47
2022-12-08T04:07:05.060Z,99808.94
2022-12-08T04:10:09.542Z,99802.47
2022-12-08T04:13:14.079Z,99798.56
2022-12-08T04:16:17.735Z,99798.97
2022-12-08T04:19:19.706Z,99795.97
2022-12-08T04:22:21.378Z,99785.81
2022-12-08T04:25:24.495Z,99793.78
2022-12-08T04:28:26.265Z,99786.16
2022-12-08T04:31:28.132Z,99783.22
2022-12-08T04:34:31.206Z,99777.50
2022-12-08T04:37:32.934Z,99789.88
2022-12-08T04:40:35.927Z,99778.59
2022-12-08T04:43:37.609Z,99782.88
2022-12-08T04:46:43.322Z,99783.63
2022-12-08T04:49:45.472Z,99778.81
2022-12-08T04:52:47.257Z,99786.44
2022-12-08T04:55:50.350Z,99782.75
2022-12-08T04:58:52.099Z,99774.75
2022-12-08T05:01:53.935Z,99787.34
2022-12-08T05:04:55.699Z,99778.44
2022-12-08T05:07:57.357Z,99779.22
2022-12-08T05:11:04.279Z,99778.09
2022-12-08T05:14:05.864Z,99766.41
2022-12-08T05:17:09.693Z,99770.13
2022-12-08T05:20:12.068Z,99778.44
2022-12-08T05:23:13.737Z,99772.38
2022-12-08T05:26:16.710Z,99772.72
2022-12-08T05:29:18.310Z,99772.72
2022-12-08T05:32:20.031Z,99767.16
2022-12-08T05:35:21.740Z,99768.25
2022-12-08T05:38:23.471Z,99768.28
2022-12-08T05:41:26.557Z,99760.50
2022-12-08T05:44:28.452Z,99753.28
2022-12-08T05:47:34.525Z,99750.69
2022-12-08T05:50:37.856Z,99765.69
2022-12-08T05:53:39.544Z,99756.78
2022-12-08T05:56:42.562Z,99760.84
2022-12-08T05:59:44.355Z,99757.53
2022-12-08T06:02:46.136Z,99761.41
2022-12-08T06:05:48.374Z,99761.81
2022-12-08T06:08:50.063Z,99771.78
2022-12-08T06:11:53.027Z,99779.00
2022-12-08T06:14:54.666Z,99774.03
2022-12-08T06:17:56.429Z,99780.34
2022-12-08T06:21:02.645Z,99764.78
2022-12-08T06:24:04.763Z,99774.63
2022-12-08T06:27:07.971Z,99769.41
2022-12-08T06:30:10.089Z,99771.28
2022-12-08T06:33:11.827Z,99763.13
2022-12-08T06:36:15.875Z,99763.47
2022-12-08T06:39:17.574Z,99767.59
2022-12-08T06:42:39.588Z,99761.28
2022-12-08T06:45:41.224Z,99759.41
2022-12-08T06:48:43.182Z,99765.53
2022-12-08T06:51:44.799Z,99760.50
2022-12-08T06:54:46.512Z,99766.97
2022-12-08T06:57:51.216Z,99754.59
2022-12-08T07:00:55.839Z,99759.94
2022-12-08T07:03:57.667Z,99757.56
2022-12-08T07:06:59.303Z,99757.72
2022-12-08T07:10:00.937Z,99757.19
2022-12-08T07:13:04.457Z,99759.22
2022-12-08T07:16:07.907Z,99759.94
2022-12-08T07:19:10.692Z,99771.41
2022-12-08T07:22:12.314Z,99768.81
2022-12-08T07:25:14.014Z,99771.41
2022-12-08T07:28:16.990Z,99769.16
2022-12-08T07:31:21.091Z,99769.19
2022-12-08T07:34:23.069Z,99770.81
2022-12-08T07:37:24.795Z,99763.44
2022-12-08T07:40:26.503Z,99772.47
2022-12-08T07:43:29.596Z,99764.91
2022-12-08T07:46:31.440Z,99759.16
2022-12-08T07:49:33.234Z,99762.50
2022-12-08T07:52:35.515Z,99750.03
2022-12-08T07:55:40.336Z,99754.09
2022-12-08T07:58:45.795Z,99759.81
2022-12-08T08:02:00.999Z,99754.78
2022-12-08T08:05:12.265Z,99756.66
2022-12-08T08:08:13.971Z,99745.94
2022-12-08T08:11:20.794Z,99748.34
2022-12-08T08:14:24.520Z,99751.28
2022-12-08T08:17:26.307Z,99753.66
2022-12-08T08:20:28.050Z,99750.88
2022-12-08T08:23:30.069Z,99759.41
2022-12-08T08:26:31.725Z,99757.94
2022-12-08T08:29:34.780Z,99751.78
2022-12-08T08:32:37.008Z,99748.81
2022-12-08T08:35:38.829Z,99752.34
2022-12-08T08:38:42.746Z,99755.50
2022-12-08T08:41:44.508Z,99759.75
2022-12-08T08:44:47.613Z,99761.19
2022-12-08T08:47:49.222Z,99755.22
2022-12-08T08:50:50.961Z,99751.69
2022-12-08T08:53:52.562Z,99749.22
2022-12-08T08:56:54.244Z,99758.25
2022-12-08T08:59:57.243Z,99759.63
2022-12-08T09:02:58.928Z,99760.91
2022-12-08T09:06:00.706Z,99755.34
2022-12-08T09:09:02.592Z,99755.09
2022-12-08T09:12:05.045Z,99753.84
2022-12-08T09:15:08.782Z,99750.28
2022-12-08T09:18:10.503Z,99749.16
2022-12-08T09:21:16.649Z,99755.28
2022-12-08T09:24:18.272Z,99747.50
2022-12-08T09:27:20.040Z,99753.84
2022-12-08T09:30:23.239Z,99752.06
2022-12-08T09:33:25.092Z,99745.78
2022-12-08T09:36:27.105Z,99750.16
2022-12-08T09:39:28.852Z,99744.31
2022-12-08T09:42:38.611Z,99740.09
2022-12-08T09:45:42.316Z,99738.28
2022-12-08T09:48:49.156Z,99728.75
2022-12-08T09:51:50.831Z,99733.09
2022-12-08T09:54:52.550Z,99727.31
2022-12-08T09:58:00.968Z,99725.38
2022-12-08T10:01:04.032Z,99715.06
2022-12-08T10:04:18.557Z,99718.09
2022-12-08T10:07:27.163Z,99704.94
2022-12-08T10:10:37.974Z,99709.19
2022-12-08T10:13:46.729Z,99702.75
2022-12-08T10:16:56.353Z,99709.63
2022-12-08T10:20:02.224Z,99700.97
2022-12-08T10:23:14.042Z,99698.28
2022-12-08T10:26:18.584Z,99693.06
2022-12-08T10:29:20.263Z,99698.19
2022-12-08T10:32:24.639Z,99687.88
2022-12-08T10:35:43.583Z,99681.50
2022-12-08T10:38:45.326Z,99690.16
2022-12-08T10:41:46.994Z,99674.72
2022-12-08T10:45:00.672Z,99668.59
2022-12-08T10:48:06.240Z,99670.38
2022-12-08T10:51:22.650Z,99674.66
2022-12-08T10:54:28.222Z,99665.75
2022-12-08T10:57:29.848Z,99661.81
2022-12-08T11:00:31.863Z,99652.91
2022-12-08T11:03:44.858Z,99655.19
2022-12-08T11:06:47.910Z,99659.28
2022-12-08T11:09:55.243Z,99658.22
2022-12-08T11:13:00.727Z,99652.28
2022-12-08T11:16:06.035Z,99641.34
2022-12-08T11:19:14.515Z,99644.41
2022-12-08T11:22:25.009Z,99627.63
2022-12-08T11:25:27.799Z,99621.59
2022-12-08T11:28:29.477Z,99626.88
2022-12-08T11:31:39.955Z,99627.44
2022-12-08T11:34:48.045Z,99624.50
2022-12-08T11:37:49.921Z,99623.59
2022-12-08T11:40:55.321Z,99615.91
2022-12-08T11:44:04.618Z,99615.34
2022-12-08T11:47:12.536Z,99612.00
2022-12-08T11:50:22.755Z,99605.06
2022-12-08T11:53:30.270Z,99598.97
2022-12-08T11:56:34.801Z,99596.06
2022-12-08T11:59:41.755Z,99597.63
2022-12-08T12:02:48.799Z,99589.81
2022-12-08T12:06:37.776Z,99586.03
2022-12-08T12:09:43.723Z,99582.22
2022-12-08T12:12:59.323Z,99578.50
2022-12-08T12:16:28.337Z,99575.47
2022-12-08T12:19:34.328Z,99575.22
2022-12-08T12:27:27.849Z,99571.50
2022-12-08T12:30:49.054Z,99565.22
2022-12-08T12:33:51.854Z,99561.72
2022-12-08T12:36:56.611Z,99567.09
2022-12-08T12:40:01.232Z,99559.00
2022-12-08T12:43:23.999Z,99559.53
2022-12-08T12:46:53.449Z,99561.25
2022-12-08T12:50:37.850Z,99551.56
2022-12-08T12:53:50.711Z,99553.63
2022-12-08T12:56:54.229Z,99561.56
2022-12-08T13:00:18.950Z,99554.94
2022-12-08T13:03:20.710Z,99557.25
2022-12-08T13:06:32.106Z,99558.59
2022-12-08T13:09:36.980Z,99556.44
2022-12-08T13:12:38.788Z,99558.81
2022-12-08T13:15:49.446Z,99554.06
2022-12-08T13:18:56.088Z,99552.16
2022-12-08T13:21:58.679Z,99549.56
2022-12-08T13:25:36.840Z,99543.94
2022-12-08T13:29:16.398Z,99538.44
2022-12-08T13:33:16.799Z,99537.41
2022-12-08T13:36:19.732Z,99528.56
2022-12-08T13:39:26.836Z,99529.88
2022-12-08T13:42:35.561Z,99538.59
2022-12-08T13:46:31.820Z,99531.53
2022-12-08T13:56:59.554Z,99527.28
2022-12-08T13:59:30.254Z,99530.63
2022-12-08T14:02:37.858Z,99528.31
2022-12-08T14:06:11.094Z,99525.22
2022-12-08T14:09:11.412Z,99524.59
2022-12-08T14:12:19.528Z,99525.34
2022-12-08T14:15:21.656Z,99533.31
2022-12-08T14:18:25.503Z,99530.25
2022-12-08T14:21:34.433Z,99528.69
2022-12-08T14:24:40.269Z,99535.09
2022-12-08T14:27:42.281Z,99537.22
2022-12-08T14:30:44.403Z,99538.69
2022-12-08T14:33:49.369Z,99539.59
2022-12-08T14:36:55.122Z,99538.09
2022-12-08T14:40:05.163Z,99533.91
2022-12-08T14:43:15.068Z,99543.84
2022-12-08T14:46:21.438Z,99533.44
2022-12-08T14:49:33.779Z,99533.09
2022-12-08T14:52:42.945Z,99532.59
2022-12-08T14:55:47.764Z,99532.28
2022-12-08T14:59:01.344Z,99540.59
2022-12-08T15:02:13.360Z,99535.22
2022-12-08T15:05:17.975Z,99545.78
2022-12-08T15:08:19.921Z,99548.22
2022-12-08T15:11:31.560Z,99539.53
2022-12-08T15:14:34.801Z,99543.97
2022-12-08T15:17:42.420Z,99539.94
2022-12-08T15:20:46.820Z,99542.81
2022-12-08T15:23:50.423Z,99537.94
2022-12-08T15:26:53.870Z,99541.81
2022-12-08T15:29:55.625Z,99540.53
2022-12-08T15:32:57.379Z,99537.63
2022-12-08T15:35:59.145Z,99539.38
2022-12-08T15:39:01.155Z,99535.72
2022-12-08T15:42:11.118Z,99532.94
2022-12-08T15:45:13.776Z,99535.13
2022-12-08T15:48:21.098Z,99533.00
2022-12-08T15:51:22.785Z,99534.59
2022-12-08T15:54:24.419Z,99536.78
2022-12-08T16:00:55.436Z,99541.97
2022-12-08T16:07:22.877Z,99544.75
2022-12-08T16:10:35.435Z,99537.09
2022-12-08T16:15:38.727Z,99540.47
2022-12-08T16:46:57.731Z,99517.59
2022-12-08T16:50:01.483Z,99514.69
2022-12-08T16:53:28.053Z,99512.41
2022-12-08T16:56:43.225Z,99512.81
2022-12-08T16:59:48.425Z,99513.25
2022-12-08T17:02:52.461Z,99514.34
2022-12-08T17:05:54.398Z,99512.25
2022-12-08T17:08:56.338Z,99518.03
2022-12-08T17:12:03.441Z,99514.69
2022-12-08T17:15:08.251Z,99510.22
2022-12-08T17:18:12.250Z,99510.50
2022-12-08T17:21:15.928Z,99509.75
2022-12-08T17:24:22.138Z,99509.75
2022-12-08T17:27:24.310Z,99510.66
2022-12-08T17:30:26.177Z,99510.06
2022-12-08T17:33:29.361Z,99506.03
2022-12-08T17:36:31.563Z,99502.38
2022-12-08T17:39:33.623Z,99498.84
2022-12-08T17:42:38.307Z,99498.84
2022-12-08T17:45:42.517Z,99504.56
2022-12-08T17:48:45.911Z,99508.06
2022-12-08T17:51:48.633Z,99507.31
2022-12-08T17:54:50.386Z,99499.19
2022-12-08T17:57:52.085Z,99504.56
2022-12-08T18:00:54.224Z,99503.44
2022-12-08T18:03:57.969Z,99501.09
2022-12-08T18:07:01.332Z,99506.31
2022-12-08T18:10:04.304Z,99501.22
2022-12-08T18:13:06.344Z,99495.06
2022-12-08T18:16:08.484Z,99503.53
2022-12-08T18:19:13.521Z,99499.63
2022-12-08T18:22:16.360Z,99496.66
2022-12-08T18:25:18.324Z,99500.38
2022-12-08T18:28:20.041Z,99507.22
2022-12-08T18:31:23.193Z,99508.00
2022-12-08T18:34:26.352Z,99502.63
2022-12-08T18:37:28.101Z,99512.19
2022-12-08T18:40:29.825Z,99501.63
2022-12-08T18:43:31.704Z,99502.38
2022-12-08T18:46:33.418Z,99503.44
2022-12-08T18:49:36.549Z,99505.47
2022-12-08T18:52:38.377Z,99497.34
2022-12-08T18:55:40.074Z,99508.84
2022-12-08T18:58:41.964Z,99512.00
2022-12-08T19:01:43.754Z,99505.63
2022-12-08T19:04:46.987Z,99506.81
2022-12-08T19:07:48.904Z,99503.88
2022-12-08T19:10:50.840Z,99506.25
2022-12-08T19:13:53.862Z,99503.13
2022-12-08T19:16:56.253Z,99508.91
2022-12-08T19:19:59.547Z,99509.06
2022-12-08T19:23:01.216Z,99503.69
2022-12-08T19:26:03.901Z,99506.47
2022-12-08T19:29:05.648Z,99503.97
2022-12-08T19:32:07.536Z,99502.09
2022-12-08T19:35:11.219Z,99503.28
2022-12-08T19:38:13.666Z,99506.13
2022-12-08T19:41:33.900Z,99503.97
2022-12-08T19:44:54.257Z,99508.25
2022-12-08T19:47:56.116Z,99497.44
2022-12-08T19:51:00.087Z,99499.03
2022-12-08T19:54:02.585Z,99497.16
2022-12-08T19:57:04.566Z,99487.31
2022-12-08T20:00:08.967Z,99488.47
2022-12-08T20:03:15.297Z,99487.22
2022-12-08T20:06:18.923Z,99492.16
2022-12-08T20:09:21.315Z,99485.31
2022-12-08T20:12:23.011Z,99483.53
2022-12-08T20:15:24.978Z,99482.03
2022-12-08T20:18:28.515Z,99481.69
2022-12-08T20:21:31.637Z,99480.59
2022-12-08T20:24:33.457Z,99481.38
2022-12-08T20:27:35.208Z,99486.13
2022-12-08T20:30:38.877Z,99483.63
2022-12-08T20:33:40.833Z,99495.59
2022-12-08T20:36:44.391Z,99489.00
2022-12-08T20:39:46.122Z,99492.91
2022-12-08T20:42:48.017Z,99486.78
2022-12-08T20:45:49.889Z,99487.66
2022-12-08T20:48:51.680Z,99487.69
2022-12-08T20:51:54.804Z,99491.66
2022-12-08T20:54:57.640Z,99490.25
2022-12-08T20:57:59.400Z,99491.38
2022-12-08T21:01:01.239Z,99488.47
2022-12-08T21:04:03.374Z,99492.19
2022-12-08T21:07:08.895Z,99484.31
2022-12-08T21:10:11.376Z,99490.97
2022-12-08T21:13:13.392Z,99481.78
2022-12-08T21:16:16.052Z,99486.00
2022-12-08T21:19:19.786Z,99486.34
2022-12-08T21:22:22.970Z,99491.34
2022-12-08T21:25:24.921Z,99483.38
2022-12-08T21:28:27.376Z,99485.53
2022-12-08T21:31:31.809Z,99488.47
2022-12-08T21:34:34.399Z,99481.53
2022-12-08T21:37:39.997Z,99490.19
2022-12-08T21:40:42.982Z,99486.06
2022-12-08T21:43:45.003Z,99485.06
2022-12-08T21:46:47.368Z,99481.88
2022-12-08T21:49:49.191Z,99479.81
2022-12-08T21:52:52.351Z,99480.31
2022-12-08T21:55:54.066Z,99483.88
2022-12-08T21:58:55.909Z,99489.19
2022-12-08T22:01:58.064Z,99485.09
2022-12-08T22:05:00.197Z,99483.19
2022-12-08T22:08:04.046Z,99479.81
2022-12-08T22:11:06.388Z,99478.94
2022-12-08T22:14:14.123Z,99473.00
2022-12-08T22:17:18.724Z,99476.34
2022-12-08T22:20:20.723Z,99475.44
2022-12-08T22:23:23.981Z,99478.78
2022-12-08T22:26:25.966Z,99473.34
2022-12-08T22:29:28.119Z,99476.81
2022-12-08T22:32:30.464Z,99472.06
2022-12-08T22:35:32.371Z,99476.50
2022-12-08T22:38:36.570Z,99474.47
2022-12-08T22:41:38.343Z,99478.66
2022-12-08T22:44:40.026Z,99474.97
2022-12-08T22:47:41.713Z,99473.34
2022-12-08T22:50:43.735Z,99480.66
2022-12-08T22:53:47.407Z,99473.00
2022-12-08T22:56:49.268Z,99473.34
2022-12-08T22:59:50.913Z,99469.50
2022-12-08T23:02:52.744Z,99464.13
2022-12-08T23:05:54.708Z,99467.25
2022-12-08T23:08:58.136Z,99457.78
2022-12-08T23:11:59.872Z,99458.38
2022-12-08T23:15:01.992Z,99448.16
2022-12-08T23:18:04.298Z,99453.50
2022-12-08T23:21:09.124Z,99449.56
2022-12-08T23:24:12.315Z,99446.19
2022-12-08T23:27:14.661Z,99451.13
2022-12-08T23:30:16.833Z,99439.25
2022-12-08T23:33:18.957Z,99436.81
2022-12-08T23:36:22.724Z,99434.47
2022-12-08T23:39:25.816Z,99430.97
2022-12-08T23:42:29.157Z,99426.78
2022-12-08T23:45:31.018Z,99424.25
2022-12-08T23:48:34.665Z,99426.84
2022-12-08T23:51:36.817Z,99430.41
2022-12-08T23:54:40.484Z,99411.31
2022-12-08T23:57:42.469Z,99408.41
